SHT76KM EGLL-EGJB
Flight info
| Callsign | SHT76KM |
|---|---|
| Flight time | 0h 30m |
| Altitude | 23000 |
| Route | GASGU N866 SAM/N0393F220 N63 LELNA |
| Aircraft | A319/M-SDE3FGHIRWY/LB1 |
Departure
| Time | 2026-04-20 17:02 |
|---|---|
| Airport | London Heathrow Airport (EGLL) |
Arrival
| Time | 2026-04-20 17:33 |
|---|---|
| Airport | Guernsey Airport (EGJB) |
| Time | Latitude | Longitude | Altitude | Speed | Heading |
|---|---|---|---|---|---|
| 2026-04-20 16:48 | 51.46926 | -0.48789 | 88 ft | 0 kts | 359° |
| 2026-04-20 16:56 | 51.46913 | -0.48789 | 88 ft | 3 kts | 359° |
| 2026-04-20 16:56 | 51.46894 | -0.48790 | 86 ft | 3 kts | 16° |
| 2026-04-20 16:56 | 51.46880 | -0.48802 | 86 ft | 3 kts | 66° |
| 2026-04-20 16:57 | 51.46876 | -0.48831 | 87 ft | 2 kts | 89° |
| 2026-04-20 16:57 | 51.46875 | -0.48837 | 86 ft | 2 kts | 89° |
| 2026-04-20 16:57 | 51.46876 | -0.48808 | 86 ft | 3 kts | 89° |
| 2026-04-20 16:57 | 51.46876 | -0.48779 | 88 ft | 2 kts | 89° |
| 2026-04-20 16:58 | 51.46876 | -0.48775 | 88 ft | 0 kts | 89° |
| 2026-04-20 16:59 | 51.46875 | -0.48769 | 87 ft | 2 kts | 102° |
| 2026-04-20 16:59 | 51.46870 | -0.48763 | 86 ft | 4 kts | 138° |
| 2026-04-20 17:00 | 51.46806 | -0.48747 | 86 ft | 0 kts | 179° |
| 2026-04-20 17:00 | 51.46804 | -0.48747 | 86 ft | 3 kts | 179° |
| 2026-04-20 17:00 | 51.46754 | -0.48748 | 86 ft | 9 kts | 180° |
| 2026-04-20 17:01 | 51.46680 | -0.48748 | 86 ft | 12 kts | 179° |
| 2026-04-20 17:01 | 51.46612 | -0.48762 | 90 ft | 10 kts | 194° |
| 2026-04-20 17:01 | 51.46532 | -0.48783 | 89 ft | 13 kts | 172° |
| 2026-04-20 17:01 | 51.46479 | -0.48669 | 87 ft | 15 kts | 93° |
| 2026-04-20 17:02 | 51.46478 | -0.48418 | 87 ft | 44 kts | 89° |
| 2026-04-20 17:02 | 51.46479 | -0.47576 | 86 ft | 106 kts | 89° |
| 2026-04-20 17:02 | 51.46489 | -0.46114 | 181 ft | 148 kts | 88° |
| 2026-04-20 17:02 | 51.46504 | -0.44462 | 807 ft | 153 kts | 87° |
| 2026-04-20 17:03 | 51.46521 | -0.42715 | 1496 ft | 161 kts | 87° |
| 2026-04-20 17:03 | 51.46422 | -0.40811 | 1999 ft | 185 kts | 99° |
| 2026-04-20 17:03 | 51.45832 | -0.38798 | 2498 ft | 216 kts | 120° |
| 2026-04-20 17:03 | 51.44870 | -0.36746 | 3161 ft | 242 kts | 126° |
| 2026-04-20 17:04 | 51.43729 | -0.34629 | 4076 ft | 258 kts | 135° |
| 2026-04-20 17:04 | 51.42138 | -0.33200 | 5191 ft | 270 kts | 159° |
| 2026-04-20 17:04 | 51.40258 | -0.32762 | 5749 ft | 279 kts | 181° |
| 2026-04-20 17:04 | 51.38393 | -0.33598 | 6032 ft | 284 kts | 209° |
| 2026-04-20 17:05 | 51.36864 | -0.35609 | 7072 ft | 284 kts | 224° |
| 2026-04-20 17:05 | 51.35391 | -0.37767 | 8160 ft | 287 kts | 223° |
| 2026-04-20 17:05 | 51.33897 | -0.39915 | 8928 ft | 291 kts | 223° |
| 2026-04-20 17:05 | 51.32383 | -0.42079 | 9175 ft | 291 kts | 224° |
| 2026-04-20 17:06 | 51.30979 | -0.44418 | 9268 ft | 290 kts | 236° |
| 2026-04-20 17:06 | 51.30068 | -0.47289 | 9939 ft | 289 kts | 255° |
| 2026-04-20 17:06 | 51.29510 | -0.50415 | 10678 ft | 302 kts | 256° |
| 2026-04-20 17:06 | 51.28911 | -0.53769 | 11044 ft | 326 kts | 256° |
| 2026-04-20 17:07 | 51.28256 | -0.57366 | 11312 ft | 349 kts | 256° |
| 2026-04-20 17:07 | 51.27527 | -0.61203 | 11623 ft | 369 kts | 255° |
| 2026-04-20 17:07 | 51.26753 | -0.65141 | 12280 ft | 375 kts | 254° |
| 2026-04-20 17:07 | 51.25966 | -0.69092 | 13046 ft | 379 kts | 254° |
| 2026-04-20 17:08 | 51.25168 | -0.73112 | 13854 ft | 381 kts | 254° |
| 2026-04-20 17:08 | 51.24365 | -0.77168 | 14594 ft | 384 kts | 255° |
| 2026-04-20 17:08 | 51.23561 | -0.81240 | 15330 ft | 386 kts | 255° |
| 2026-04-20 17:08 | 51.22753 | -0.85347 | 16079 ft | 388 kts | 256° |
| 2026-04-20 17:09 | 51.21942 | -0.89474 | 16816 ft | 390 kts | 256° |
| 2026-04-20 17:09 | 51.20957 | -0.93533 | 17518 ft | 397 kts | 248° |
| 2026-04-20 17:09 | 51.19507 | -0.97329 | 18189 ft | 405 kts | 238° |
| 2026-04-20 17:09 | 51.17620 | -1.00714 | 18838 ft | 412 kts | 229° |
| 2026-04-20 17:10 | 51.15552 | -1.03898 | 19422 ft | 414 kts | 229° |
| 2026-04-20 17:10 | 51.13468 | -1.07100 | 20008 ft | 416 kts | 229° |
| 2026-04-20 17:10 | 51.11375 | -1.10303 | 20578 ft | 418 kts | 230° |
| 2026-04-20 17:10 | 51.09281 | -1.13508 | 21128 ft | 420 kts | 230° |
| 2026-04-20 17:11 | 51.07169 | -1.16743 | 21660 ft | 421 kts | 230° |
| 2026-04-20 17:11 | 51.05049 | -1.19984 | 22167 ft | 423 kts | 230° |
| 2026-04-20 17:11 | 51.02947 | -1.23189 | 22650 ft | 425 kts | 230° |
| 2026-04-20 17:11 | 51.00772 | -1.26497 | 23114 ft | 427 kts | 230° |
| 2026-04-20 17:12 | 50.98626 | -1.29765 | 23235 ft | 430 kts | 230° |
| 2026-04-20 17:12 | 50.96421 | -1.32979 | 23251 ft | 444 kts | 226° |
| 2026-04-20 17:12 | 50.93847 | -1.35821 | 23247 ft | 457 kts | 217° |
| 2026-04-20 17:12 | 50.90993 | -1.38163 | 23246 ft | 462 kts | 213° |
| 2026-04-20 17:13 | 50.88112 | -1.40439 | 23248 ft | 463 kts | 213° |
| 2026-04-20 17:13 | 50.85236 | -1.42713 | 23243 ft | 462 kts | 212° |
| 2026-04-20 17:13 | 50.82368 | -1.44990 | 23246 ft | 461 kts | 213° |
| 2026-04-20 17:13 | 50.79498 | -1.47281 | 23244 ft | 461 kts | 213° |
| 2026-04-20 17:14 | 50.76621 | -1.49577 | 23242 ft | 461 kts | 213° |
| 2026-04-20 17:14 | 50.73753 | -1.51860 | 23243 ft | 461 kts | 213° |
| 2026-04-20 17:14 | 50.70883 | -1.54136 | 23241 ft | 461 kts | 213° |
| 2026-04-20 17:14 | 50.68018 | -1.56403 | 23240 ft | 461 kts | 212° |
| 2026-04-20 17:15 | 50.66117 | -1.57905 | 23239 ft | 461 kts | 212° |
| 2026-04-20 17:15 | 50.63249 | -1.60166 | 23206 ft | 461 kts | 212° |
| 2026-04-20 17:15 | 50.60379 | -1.62424 | 23210 ft | 460 kts | 212° |
| 2026-04-20 17:15 | 50.57515 | -1.64673 | 23218 ft | 460 kts | 212° |
| 2026-04-20 17:16 | 50.54650 | -1.66922 | 23222 ft | 460 kts | 212° |
| 2026-04-20 17:16 | 50.51787 | -1.69166 | 23229 ft | 460 kts | 212° |
| 2026-04-20 17:16 | 50.48920 | -1.71410 | 23230 ft | 460 kts | 212° |
| 2026-04-20 17:16 | 50.46045 | -1.73659 | 23231 ft | 460 kts | 212° |
| 2026-04-20 17:17 | 50.43187 | -1.75897 | 23232 ft | 460 kts | 212° |
| 2026-04-20 17:17 | 50.40325 | -1.78140 | 23207 ft | 460 kts | 212° |
| 2026-04-20 17:17 | 50.37465 | -1.80376 | 23220 ft | 459 kts | 212° |
| 2026-04-20 17:17 | 50.34605 | -1.82608 | 23227 ft | 458 kts | 212° |
| 2026-04-20 17:18 | 50.31754 | -1.84828 | 23214 ft | 458 kts | 212° |
| 2026-04-20 17:18 | 50.28935 | -1.87017 | 23225 ft | 457 kts | 212° |
| 2026-04-20 17:18 | 50.26081 | -1.89226 | 23228 ft | 457 kts | 212° |
| 2026-04-20 17:18 | 50.23233 | -1.91425 | 23230 ft | 457 kts | 212° |
| 2026-04-20 17:19 | 50.20379 | -1.93624 | 23228 ft | 457 kts | 212° |
| 2026-04-20 17:19 | 50.17530 | -1.95820 | 23205 ft | 457 kts | 212° |
| 2026-04-20 17:19 | 50.14678 | -1.98024 | 23207 ft | 457 kts | 212° |
| 2026-04-20 17:19 | 50.11831 | -2.00220 | 23179 ft | 455 kts | 212° |
| 2026-04-20 17:20 | 50.09018 | -2.02384 | 22197 ft | 449 kts | 211° |
| 2026-04-20 17:20 | 50.06210 | -2.04541 | 20945 ft | 449 kts | 211° |
| 2026-04-20 17:20 | 50.03408 | -2.06688 | 19765 ft | 448 kts | 210° |
| 2026-04-20 17:20 | 50.00651 | -2.08869 | 18771 ft | 441 kts | 213° |
| 2026-04-20 17:21 | 49.98139 | -2.11528 | 17728 ft | 432 kts | 222° |
| 2026-04-20 17:21 | 49.95973 | -2.14666 | 16808 ft | 420 kts | 230° |
| 2026-04-20 17:21 | 49.94055 | -2.18021 | 15900 ft | 412 kts | 230° |
| 2026-04-20 17:21 | 49.92162 | -2.21327 | 15043 ft | 406 kts | 231° |
| 2026-04-20 17:22 | 49.90293 | -2.24580 | 14212 ft | 402 kts | 231° |
| 2026-04-20 17:22 | 49.88443 | -2.27792 | 13364 ft | 397 kts | 230° |
| 2026-04-20 17:22 | 49.86621 | -2.30956 | 12623 ft | 388 kts | 230° |
| 2026-04-20 17:22 | 49.84839 | -2.34052 | 11903 ft | 380 kts | 229° |
| 2026-04-20 17:23 | 49.83107 | -2.37060 | 11470 ft | 366 kts | 230° |
| 2026-04-20 17:23 | 49.81464 | -2.39907 | 11343 ft | 344 kts | 229° |
| 2026-04-20 17:23 | 49.79908 | -2.42601 | 11216 ft | 326 kts | 229° |
| 2026-04-20 17:23 | 49.78430 | -2.45161 | 11092 ft | 311 kts | 230° |
| 2026-04-20 17:24 | 49.77036 | -2.47573 | 10965 ft | 298 kts | 230° |
| 2026-04-20 17:24 | 49.75667 | -2.49941 | 10710 ft | 292 kts | 230° |
| 2026-04-20 17:24 | 49.74322 | -2.52264 | 10469 ft | 289 kts | 229° |
| 2026-04-20 17:24 | 49.72982 | -2.54577 | 10220 ft | 288 kts | 229° |
| 2026-04-20 17:25 | 49.71647 | -2.56880 | 10063 ft | 287 kts | 229° |
| 2026-04-20 17:25 | 49.70305 | -2.59166 | 9928 ft | 287 kts | 226° |
| 2026-04-20 17:25 | 49.68831 | -2.61245 | 9783 ft | 287 kts | 222° |
| 2026-04-20 17:25 | 49.67346 | -2.63304 | 9648 ft | 287 kts | 223° |
| 2026-04-20 17:26 | 49.65864 | -2.65363 | 9472 ft | 287 kts | 223° |
| 2026-04-20 17:26 | 49.64368 | -2.67439 | 8932 ft | 291 kts | 223° |
| 2026-04-20 17:26 | 49.62862 | -2.69523 | 8510 ft | 289 kts | 222° |
| 2026-04-20 17:26 | 49.61364 | -2.71598 | 8126 ft | 288 kts | 222° |
| 2026-04-20 17:27 | 49.59876 | -2.73655 | 7732 ft | 287 kts | 221° |
| 2026-04-20 17:27 | 49.58393 | -2.75706 | 7311 ft | 287 kts | 221° |
| 2026-04-20 17:27 | 49.56906 | -2.77761 | 6917 ft | 287 kts | 221° |
| 2026-04-20 17:27 | 49.55441 | -2.79807 | 6644 ft | 282 kts | 221° |
| 2026-04-20 17:28 | 49.53992 | -2.81836 | 6340 ft | 283 kts | 221° |
| 2026-04-20 17:28 | 49.52515 | -2.83823 | 5918 ft | 282 kts | 214° |
| 2026-04-20 17:28 | 49.50730 | -2.84936 | 5509 ft | 276 kts | 186° |
| 2026-04-20 17:28 | 49.48826 | -2.85231 | 5106 ft | 275 kts | 181° |
| 2026-04-20 17:29 | 49.46932 | -2.85468 | 4684 ft | 269 kts | 180° |
| 2026-04-20 17:29 | 49.45114 | -2.85402 | 4240 ft | 255 kts | 160° |
| 2026-04-20 17:29 | 49.43677 | -2.84047 | 3753 ft | 238 kts | 127° |
| 2026-04-20 17:29 | 49.42956 | -2.81850 | 3184 ft | 229 kts | 98° |
| 2026-04-20 17:30 | 49.42943 | -2.79448 | 2721 ft | 222 kts | 86° |
| 2026-04-20 17:30 | 49.43012 | -2.77135 | 2392 ft | 212 kts | 86° |
| 2026-04-20 17:30 | 49.43076 | -2.74935 | 2099 ft | 200 kts | 85° |
| 2026-04-20 17:30 | 49.43135 | -2.72874 | 1826 ft | 187 kts | 85° |
| 2026-04-20 17:31 | 49.43190 | -2.70966 | 1590 ft | 168 kts | 85° |
| 2026-04-20 17:31 | 49.43237 | -2.69276 | 1370 ft | 149 kts | 84° |
| 2026-04-20 17:31 | 49.43278 | -2.67820 | 1172 ft | 126 kts | 84° |
| 2026-04-20 17:31 | 49.43314 | -2.66540 | 1011 ft | 115 kts | 83° |
| 2026-04-20 17:32 | 49.43354 | -2.65308 | 825 ft | 115 kts | 83° |
| 2026-04-20 17:32 | 49.43398 | -2.64091 | 656 ft | 114 kts | 85° |
| 2026-04-20 17:32 | 49.43421 | -2.62866 | 529 ft | 117 kts | 84° |
| 2026-04-20 17:32 | 49.43456 | -2.61626 | 374 ft | 113 kts | 83° |
| 2026-04-20 17:33 | 49.43489 | -2.60502 | 308 ft | 88 kts | 87° |
| 2026-04-20 17:33 | 49.43501 | -2.60013 | 318 ft | 18 kts | 84° |
| 2026-04-20 17:33 | 49.43473 | -2.59864 | 323 ft | 9 kts | 168° |
| 2026-04-20 17:33 | 49.43412 | -2.59863 | 325 ft | 8 kts | 179° |
| 2026-04-20 17:34 | 49.43354 | -2.59832 | 323 ft | 8 kts | 127° |
| 2026-04-20 17:34 | 49.43351 | -2.59819 | 326 ft | 0 kts | 112° |
| 2026-04-20 17:34 | 49.43355 | -2.59747 | 327 ft | 9 kts | 78° |
| 2026-04-20 17:34 | 49.43319 | -2.59687 | 329 ft | 9 kts | 177° |
| 2026-04-20 17:35 | 49.43275 | -2.59685 | 328 ft | 4 kts | 177° |
| 2026-04-20 17:35 | 49.43259 | -2.59684 | 328 ft | 2 kts | 178° |
| 2026-04-20 17:35 | 49.43255 | -2.59684 | 328 ft | 0 kts | 177° |